createdAt,value
2019-01-09T00:00:26.631Z,20.99
2019-01-09T00:02:54.167Z,21.02
2019-01-09T00:05:28.348Z,21.03
2019-01-09T00:07:50.921Z,21.02
2019-01-09T00:10:18.449Z,20.99
2019-01-09T00:12:45.983Z,20.99
2019-01-09T00:15:13.507Z,21.00
2019-01-09T00:17:41.003Z,21.03
2019-01-09T00:20:08.519Z,21.00
2019-01-09T00:22:36.021Z,20.99
2019-01-09T00:25:03.815Z,20.98
2019-01-09T00:27:31.323Z,20.99
2019-01-09T00:29:58.830Z,21.00
2019-01-09T00:32:26.416Z,20.97
2019-01-09T00:34:53.939Z,21.00
2019-01-09T00:37:21.455Z,20.98
2019-01-09T00:39:48.989Z,20.98
2019-01-09T00:42:16.506Z,20.97
2019-01-09T00:44:44.026Z,20.97
2019-01-09T00:47:11.553Z,20.96
2019-01-09T00:49:39.097Z,20.96
2019-01-09T00:52:06.638Z,20.97
2019-01-09T00:54:34.186Z,20.96
2019-01-09T00:57:01.682Z,20.96
2019-01-09T00:59:29.216Z,20.95
2019-01-09T01:02:01.443Z,20.97
2019-01-09T01:04:42.523Z,20.94
2019-01-09T01:07:28.047Z,20.94
2019-01-09T01:09:57.168Z,20.93
2019-01-09T01:12:42.864Z,20.93
2019-01-09T01:15:28.759Z,20.91
2019-01-09T01:17:57.936Z,20.92
2019-01-09T01:20:32.812Z,20.92
2019-01-09T01:23:01.968Z,20.91
2019-01-09T01:25:34.208Z,20.91
2019-01-09T01:28:12.679Z,20.93
2019-01-09T01:30:58.666Z,20.92
2019-01-09T01:33:33.632Z,20.92
2019-01-09T01:36:19.440Z,20.91
2019-01-09T01:38:48.581Z,20.91
2019-01-09T01:41:20.802Z,20.91
2019-01-09T01:43:49.938Z,20.87
2019-01-09T01:46:19.089Z,20.88
2019-01-09T01:48:50.897Z,20.90
2019-01-09T01:51:23.090Z,20.88
2019-01-09T01:54:01.492Z,20.87
2019-01-09T01:56:33.941Z,20.86
2019-01-09T01:59:09.304Z,20.87
2019-01-09T02:01:47.666Z,20.85
2019-01-09T02:04:16.810Z,20.84
2019-01-09T02:06:48.893Z,20.83
2019-01-09T02:09:34.442Z,20.84
2019-01-09T02:12:03.642Z,20.84
2019-01-09T02:14:38.487Z,20.83
2019-01-09T02:17:13.766Z,20.83
2019-01-09T02:19:42.972Z,20.84
2019-01-09T02:22:15.082Z,20.84
2019-01-09T02:24:44.204Z,20.84
2019-01-09T02:27:13.363Z,20.83
2019-01-09T02:29:54.554Z,20.82
2019-01-09T02:32:31.184Z,20.82
2019-01-09T02:34:58.700Z,20.81
2019-01-09T02:37:26.298Z,20.82
2019-01-09T02:39:53.817Z,20.80
2019-01-09T02:42:21.322Z,20.80
2019-01-09T02:44:48.844Z,20.80
2019-01-09T02:47:16.368Z,20.78
2019-01-09T02:49:43.899Z,20.81
2019-01-09T02:52:11.414Z,20.78
2019-01-09T02:54:38.955Z,20.76
2019-01-09T02:57:06.454Z,20.75
2019-01-09T02:59:33.979Z,20.76
2019-01-09T03:02:01.465Z,20.77
2019-01-09T03:04:28.992Z,20.77
2019-01-09T03:06:56.515Z,20.74
2019-01-09T03:09:24.042Z,20.75
2019-01-09T03:11:51.670Z,20.75
2019-01-09T03:14:19.185Z,20.75
2019-01-09T03:16:46.707Z,20.74
2019-01-09T03:19:14.233Z,20.72
2019-01-09T03:21:41.778Z,20.73
2019-01-09T03:24:09.326Z,20.74
2019-01-09T03:26:36.832Z,20.72
2019-01-09T03:29:04.362Z,20.72
2019-01-09T03:31:31.881Z,20.70
2019-01-09T03:33:59.390Z,20.72
2019-01-09T03:36:32.667Z,20.70
2019-01-09T03:38:56.142Z,20.71
2019-01-09T03:41:23.637Z,20.71
2019-01-09T03:43:51.181Z,20.70
2019-01-09T03:46:18.714Z,20.71
2019-01-09T03:48:46.208Z,20.71
2019-01-09T03:51:13.749Z,20.74
2019-01-09T03:53:41.246Z,20.71
2019-01-09T03:56:08.756Z,20.69
2019-01-09T03:58:36.277Z,20.72
2019-01-09T04:01:03.785Z,20.71
2019-01-09T04:03:31.305Z,20.69
2019-01-09T04:05:58.818Z,20.69
2019-01-09T04:08:26.358Z,20.69
2019-01-09T04:10:53.859Z,20.70
2019-01-09T04:13:21.377Z,20.69
2019-01-09T04:15:48.881Z,20.70
2019-01-09T04:18:16.417Z,20.67
2019-01-09T04:20:43.941Z,20.68
2019-01-09T04:23:11.443Z,20.70
2019-01-09T04:25:38.968Z,20.67
2019-01-09T04:28:06.469Z,20.68
2019-01-09T04:30:33.982Z,20.69
2019-01-09T04:33:01.487Z,20.69
2019-01-09T04:35:29.018Z,20.69
2019-01-09T04:37:56.521Z,20.70
2019-01-09T04:40:24.022Z,20.69
2019-01-09T04:42:51.824Z,20.71
2019-01-09T04:45:19.331Z,20.72
2019-01-09T04:47:46.876Z,20.72
2019-01-09T04:50:14.377Z,20.72
2019-01-09T04:52:41.962Z,20.74
2019-01-09T04:55:09.459Z,20.74
2019-01-09T04:57:37.000Z,20.73
2019-01-09T05:00:05.281Z,20.73
2019-01-09T05:02:32.811Z,20.74
2019-01-09T05:05:00.347Z,20.74
2019-01-09T05:07:27.840Z,20.75
2019-01-09T05:09:55.385Z,20.74
2019-01-09T05:12:22.884Z,20.74
2019-01-09T05:14:50.404Z,20.74
2019-01-09T05:17:17.906Z,20.75
2019-01-09T05:19:45.419Z,20.73
2019-01-09T05:22:12.925Z,20.74
2019-01-09T05:24:40.434Z,20.73
2019-01-09T05:27:07.968Z,20.73
2019-01-09T05:29:35.503Z,20.74
2019-01-09T05:32:03.015Z,20.74
2019-01-09T05:34:30.542Z,20.74
2019-01-09T05:36:58.055Z,20.73
2019-01-09T05:39:25.567Z,20.73
2019-01-09T05:41:53.100Z,20.73
2019-01-09T05:44:20.599Z,20.72
2019-01-09T05:46:48.091Z,20.71
2019-01-09T05:49:15.617Z,20.69
2019-01-09T05:51:43.171Z,20.70
2019-01-09T05:54:10.665Z,20.70
2019-01-09T05:56:38.203Z,20.70
2019-01-09T05:59:05.721Z,20.70
2019-01-09T06:01:33.237Z,20.70
2019-01-09T06:04:00.746Z,20.71
2019-01-09T06:06:28.267Z,20.71
2019-01-09T06:08:55.767Z,20.72
2019-01-09T06:11:23.261Z,20.70
2019-01-09T06:13:50.801Z,20.72
2019-01-09T06:16:18.306Z,20.72
2019-01-09T06:18:45.851Z,20.71
2019-01-09T06:21:13.361Z,20.72
2019-01-09T06:23:41.734Z,20.70
2019-01-09T06:26:09.383Z,20.71
2019-01-09T06:28:36.969Z,20.71
2019-01-09T06:31:04.500Z,20.70
2019-01-09T06:33:32.005Z,20.70
2019-01-09T06:35:59.531Z,20.70
2019-01-09T06:38:27.035Z,20.70
2019-01-09T06:40:54.575Z,20.69
2019-01-09T06:43:22.101Z,20.71
2019-01-09T06:45:49.619Z,20.70
2019-01-09T06:48:17.130Z,20.68
2019-01-09T06:50:44.643Z,20.69
2019-01-09T06:53:12.202Z,20.68
2019-01-09T06:55:39.764Z,20.68
2019-01-09T06:58:07.343Z,20.71
2019-01-09T07:00:34.846Z,20.71
2019-01-09T07:03:02.377Z,20.71
2019-01-09T07:05:29.887Z,20.70
2019-01-09T07:07:57.408Z,20.70
2019-01-09T07:10:24.900Z,20.69
2019-01-09T07:12:52.434Z,20.69
2019-01-09T07:15:19.939Z,20.70
2019-01-09T07:17:47.459Z,20.69
2019-01-09T07:20:14.970Z,20.68
2019-01-09T07:22:42.474Z,20.68
2019-01-09T07:25:09.996Z,20.67
2019-01-09T07:27:37.504Z,20.68
2019-01-09T07:30:06.513Z,20.68
2019-01-09T07:32:33.992Z,20.70
2019-01-09T07:35:01.543Z,20.69
2019-01-09T07:37:29.219Z,20.69
2019-01-09T07:39:56.739Z,20.67
2019-01-09T07:42:24.294Z,20.69
2019-01-09T07:44:51.868Z,20.69
2019-01-09T07:47:19.474Z,20.68
2019-01-09T07:49:47.000Z,20.68
2019-01-09T07:52:14.517Z,20.67
2019-01-09T07:54:42.024Z,20.68
2019-01-09T07:57:09.563Z,20.67
2019-01-09T07:59:37.242Z,20.66
2019-01-09T08:02:04.780Z,20.69
2019-01-09T08:04:32.532Z,20.67
2019-01-09T08:07:00.194Z,20.69
2019-01-09T08:09:27.712Z,20.67
2019-01-09T08:11:55.214Z,20.69
2019-01-09T08:14:22.760Z,20.69
2019-01-09T08:16:50.268Z,20.68
2019-01-09T08:19:17.776Z,20.67
2019-01-09T08:21:45.285Z,20.70
2019-01-09T08:24:12.812Z,20.67
2019-01-09T08:26:40.314Z,20.69
2019-01-09T08:29:07.868Z,20.68
2019-01-09T08:31:35.380Z,20.68
2019-01-09T08:34:02.908Z,20.66
2019-01-09T08:36:30.400Z,20.67
2019-01-09T08:38:57.936Z,20.69
2019-01-09T08:41:25.623Z,20.68
2019-01-09T08:43:53.156Z,20.68
2019-01-09T08:46:20.716Z,20.68
2019-01-09T08:48:48.202Z,20.66
2019-01-09T08:51:15.724Z,20.66
2019-01-09T08:53:43.244Z,20.68
2019-01-09T08:56:10.783Z,20.67
2019-01-09T08:58:38.284Z,20.67
2019-01-09T09:01:05.982Z,20.66
2019-01-09T09:03:33.586Z,20.65
2019-01-09T09:06:01.105Z,20.66
2019-01-09T09:08:28.621Z,20.66
2019-01-09T09:10:56.126Z,20.68
2019-01-09T09:13:25.293Z,20.67
2019-01-09T09:15:52.852Z,20.66
2019-01-09T09:18:20.358Z,20.67
2019-01-09T09:20:47.876Z,20.67
2019-01-09T09:23:15.362Z,20.68
2019-01-09T09:25:42.886Z,20.68
2019-01-09T09:28:10.436Z,20.67
2019-01-09T09:30:37.975Z,20.67
2019-01-09T09:33:05.476Z,20.64
2019-01-09T09:35:33.005Z,20.67
2019-01-09T09:38:00.519Z,20.66
2019-01-09T09:40:28.053Z,20.68
2019-01-09T09:42:55.573Z,20.46
2019-01-09T09:45:23.088Z,20.43
2019-01-09T09:47:50.576Z,20.49
2019-01-09T09:50:18.109Z,20.54
2019-01-09T09:52:45.620Z,20.56
2019-01-09T09:55:13.348Z,20.57
2019-01-09T09:57:41.023Z,20.58
2019-01-09T10:00:10.174Z,20.59
2019-01-09T10:02:37.687Z,20.60
2019-01-09T10:05:05.490Z,20.60
2019-01-09T10:07:33.028Z,20.58
2019-01-09T10:10:00.601Z,20.62
2019-01-09T10:12:28.137Z,20.61
2019-01-09T10:14:55.639Z,20.60
2019-01-09T10:17:23.161Z,20.60
2019-01-09T10:19:50.681Z,20.62
2019-01-09T10:22:18.334Z,20.61
2019-01-09T10:24:45.862Z,20.56
2019-01-09T10:27:13.381Z,20.56
2019-01-09T10:29:40.907Z,20.55
2019-01-09T10:32:08.416Z,20.52
2019-01-09T10:34:35.914Z,20.51
2019-01-09T10:37:03.433Z,20.52
2019-01-09T10:39:30.988Z,20.51
2019-01-09T10:41:58.537Z,20.51
2019-01-09T10:44:26.050Z,20.50
2019-01-09T10:46:53.563Z,20.50
2019-01-09T10:49:21.097Z,20.48
2019-01-09T10:51:48.711Z,20.50
2019-01-09T10:54:16.241Z,20.52
2019-01-09T10:56:43.748Z,20.53
2019-01-09T10:59:11.385Z,20.50
2019-01-09T11:01:39.081Z,20.51
2019-01-09T11:04:06.595Z,20.51
2019-01-09T11:06:34.111Z,20.52
2019-01-09T11:09:01.733Z,20.48
2019-01-09T11:11:29.321Z,20.50
2019-01-09T11:13:56.825Z,20.48
2019-01-09T11:16:24.345Z,20.47
2019-01-09T11:18:51.889Z,20.49
2019-01-09T11:21:19.421Z,20.51
2019-01-09T11:23:46.955Z,20.50
2019-01-09T11:26:15.246Z,20.48
2019-01-09T11:28:42.992Z,20.45
2019-01-09T11:31:10.544Z,20.45
2019-01-09T11:33:38.077Z,20.47
2019-01-09T11:36:05.597Z,20.47
2019-01-09T11:38:33.244Z,20.47
2019-01-09T11:41:00.760Z,20.46
2019-01-09T11:43:28.257Z,20.47
2019-01-09T11:45:55.787Z,20.48
2019-01-09T11:48:23.317Z,20.50
2019-01-09T11:50:50.863Z,20.49
2019-01-09T11:53:18.359Z,20.50
2019-01-09T11:55:45.899Z,20.51
2019-01-09T11:58:13.404Z,20.51
2019-01-09T12:00:42.799Z,20.52
2019-01-09T12:03:10.174Z,20.53
2019-01-09T12:05:37.701Z,20.54
2019-01-09T12:08:05.203Z,20.56
2019-01-09T12:10:32.734Z,20.56
2019-01-09T12:13:00.247Z,20.56
2019-01-09T12:15:27.801Z,20.58
2019-01-09T12:17:55.313Z,20.58
2019-01-09T12:20:22.855Z,20.58
2019-01-09T12:22:50.375Z,20.58
2019-01-09T12:25:17.877Z,20.58
2019-01-09T12:27:45.389Z,20.61
2019-01-09T12:30:14.539Z,20.61
2019-01-09T12:32:42.033Z,20.61
2019-01-09T12:35:09.839Z,20.61
2019-01-09T12:37:37.361Z,20.62
2019-01-09T12:40:06.248Z,20.63
2019-01-09T12:42:33.759Z,20.59
2019-01-09T12:45:01.291Z,20.58
2019-01-09T12:47:28.809Z,20.59
2019-01-09T12:49:56.329Z,20.64
2019-01-09T12:52:23.845Z,20.79
2019-01-09T12:54:51.377Z,20.67
2019-01-09T12:57:18.883Z,20.64
2019-01-09T12:59:46.406Z,20.64
2019-01-09T13:02:13.929Z,20.62
2019-01-09T13:04:41.469Z,20.63
2019-01-09T13:07:08.987Z,20.62
2019-01-09T13:09:36.525Z,20.63
2019-01-09T13:12:04.074Z,20.64
2019-01-09T13:14:31.569Z,20.66
2019-01-09T13:16:59.116Z,20.66
2019-01-09T13:19:26.612Z,20.66
2019-01-09T13:21:54.097Z,20.68
2019-01-09T13:24:21.643Z,20.69
2019-01-09T13:26:49.148Z,20.67
2019-01-09T13:29:16.652Z,20.68
2019-01-09T13:31:44.179Z,20.67
2019-01-09T13:34:11.701Z,20.68
2019-01-09T13:36:39.246Z,20.68
2019-01-09T13:39:07.418Z,20.67
2019-01-09T13:41:35.048Z,20.64
2019-01-09T13:44:02.703Z,20.67
2019-01-09T13:46:30.259Z,20.66
2019-01-09T13:48:57.776Z,20.65
2019-01-09T13:51:25.293Z,20.65
2019-01-09T13:53:52.824Z,20.67
2019-01-09T13:56:20.332Z,20.66
2019-01-09T13:58:47.842Z,20.65
2019-01-09T14:01:15.386Z,20.61
2019-01-09T14:03:42.886Z,20.58
2019-01-09T14:06:10.412Z,20.55
2019-01-09T14:08:37.913Z,20.58
2019-01-09T14:11:05.443Z,20.55
2019-01-09T14:13:32.936Z,20.56
2019-01-09T14:16:00.468Z,20.54
2019-01-09T14:18:27.999Z,20.53
2019-01-09T14:20:55.502Z,20.51
2019-01-09T14:23:23.018Z,20.48
2019-01-09T14:25:50.538Z,20.48
2019-01-09T14:28:18.062Z,20.50
2019-01-09T14:30:45.568Z,20.47
2019-01-09T14:33:13.106Z,20.44
2019-01-09T14:35:40.630Z,20.44
2019-01-09T14:38:08.128Z,20.47
2019-01-09T14:40:37.243Z,20.46
2019-01-09T14:43:05.058Z,20.45
2019-01-09T14:45:32.544Z,20.46
2019-01-09T14:48:00.076Z,20.46
2019-01-09T14:50:27.590Z,20.46
2019-01-09T14:52:55.157Z,20.46
2019-01-09T14:55:22.683Z,20.45
2019-01-09T14:57:50.170Z,20.45
2019-01-09T15:00:21.753Z,20.44
2019-01-09T15:02:49.248Z,20.43
2019-01-09T15:05:16.934Z,20.43
2019-01-09T15:07:44.523Z,20.44
2019-01-09T15:10:16.282Z,20.45
2019-01-09T15:12:43.820Z,20.43
2019-01-09T15:15:12.950Z,20.40
2019-01-09T15:17:40.494Z,20.40
2019-01-09T15:20:09.672Z,20.41
2019-01-09T15:22:37.211Z,20.44
2019-01-09T15:25:06.374Z,20.41
2019-01-09T15:27:33.903Z,20.42
2019-01-09T15:30:01.434Z,20.43
2019-01-09T15:32:28.966Z,20.43
2019-01-09T15:34:56.484Z,20.44
2019-01-09T15:37:24.002Z,20.43
2019-01-09T15:39:51.499Z,20.43
2019-01-09T15:42:19.026Z,20.44
2019-01-09T15:44:46.547Z,20.44
2019-01-09T15:47:14.088Z,20.45
2019-01-09T15:49:41.590Z,20.46
2019-01-09T15:52:09.108Z,20.50
2019-01-09T15:54:36.641Z,20.51
2019-01-09T15:57:04.183Z,20.51
2019-01-09T15:59:31.686Z,20.53
2019-01-09T16:01:59.198Z,20.56
2019-01-09T16:04:26.732Z,20.57
2019-01-09T16:06:54.276Z,20.55
2019-01-09T16:09:21.786Z,20.51
2019-01-09T16:11:49.297Z,20.54
2019-01-09T16:14:16.818Z,20.55
2019-01-09T16:16:44.336Z,20.59
2019-01-09T16:19:11.916Z,20.61
2019-01-09T16:21:39.484Z,20.61
2019-01-09T16:24:06.992Z,20.61
2019-01-09T16:26:34.517Z,20.60
2019-01-09T16:29:02.029Z,20.60
2019-01-09T16:31:29.565Z,20.62
2019-01-09T16:33:57.103Z,20.63
2019-01-09T16:36:24.642Z,20.64
2019-01-09T16:38:52.146Z,20.65
2019-01-09T16:41:19.664Z,20.67
2019-01-09T16:43:47.173Z,20.70
2019-01-09T16:46:14.698Z,20.68
2019-01-09T16:48:42.231Z,20.71
2019-01-09T16:51:09.733Z,20.70
2019-01-09T16:53:37.332Z,20.72
2019-01-09T16:56:04.831Z,20.72
2019-01-09T16:58:32.358Z,20.72
2019-01-09T17:00:59.943Z,20.72
2019-01-09T17:03:27.479Z,20.75
2019-01-09T17:05:54.999Z,20.75
2019-01-09T17:08:22.601Z,20.73
2019-01-09T17:10:50.136Z,20.74
2019-01-09T17:13:17.657Z,20.73
2019-01-09T17:15:45.538Z,20.74
2019-01-09T17:18:13.077Z,20.74
2019-01-09T17:20:40.595Z,20.75
2019-01-09T17:23:08.237Z,20.74
2019-01-09T17:25:35.839Z,20.73
2019-01-09T17:28:03.453Z,20.73
2019-01-09T17:30:31.735Z,20.73
2019-01-09T17:32:59.255Z,20.73
2019-01-09T17:35:26.781Z,20.72
2019-01-09T17:37:54.289Z,20.71
2019-01-09T17:40:22.387Z,20.70
2019-01-09T17:42:50.383Z,20.72
2019-01-09T17:45:17.922Z,20.72
2019-01-09T17:47:45.423Z,20.72
2019-01-09T17:50:23.748Z,20.72
2019-01-09T17:52:51.307Z,20.71
2019-01-09T17:55:18.851Z,20.73
2019-01-09T17:57:46.450Z,20.74
2019-01-09T18:00:15.611Z,20.72
2019-01-09T18:02:43.145Z,20.72
2019-01-09T18:05:10.657Z,20.38
2019-01-09T18:07:38.189Z,19.54
2019-01-09T18:10:07.353Z,19.78
2019-01-09T18:12:34.914Z,20.14
2019-01-09T18:15:02.428Z,20.35
2019-01-09T18:17:29.975Z,20.45
2019-01-09T18:19:58.528Z,20.49
2019-01-09T18:22:26.063Z,20.52
2019-01-09T18:24:53.607Z,20.56
2019-01-09T18:27:21.140Z,20.54
2019-01-09T18:29:48.662Z,20.56
2019-01-09T18:32:18.079Z,20.56
2019-01-09T18:34:45.971Z,20.56
2019-01-09T18:37:24.014Z,20.58
2019-01-09T18:39:59.064Z,20.58
2019-01-09T18:42:33.989Z,20.58
2019-01-09T18:45:04.570Z,20.57
2019-01-09T18:47:33.871Z,20.58
2019-01-09T18:50:14.903Z,20.59
2019-01-09T18:52:56.257Z,20.60
2019-01-09T18:55:23.795Z,20.60
2019-01-09T18:57:51.323Z,20.60
2019-01-09T19:00:20.293Z,20.61
2019-01-09T19:02:47.803Z,20.61
2019-01-09T19:05:15.346Z,20.63
2019-01-09T19:07:42.857Z,20.62
2019-01-09T19:10:17.855Z,20.61
2019-01-09T19:12:45.386Z,20.62
2019-01-09T19:15:13.452Z,20.62
2019-01-09T19:17:40.967Z,20.62
2019-01-09T19:20:08.977Z,20.62
2019-01-09T19:22:36.515Z,20.62
2019-01-09T19:25:06.015Z,20.60
2019-01-09T19:27:33.553Z,20.61
2019-01-09T19:30:01.092Z,20.61
2019-01-09T19:32:28.599Z,20.60
2019-01-09T19:34:56.112Z,20.63
2019-01-09T19:37:23.629Z,20.64
2019-01-09T19:39:51.157Z,20.64
2019-01-09T19:42:18.673Z,20.65
2019-01-09T19:44:46.180Z,20.64
2019-01-09T19:47:13.695Z,20.64
2019-01-09T19:49:41.213Z,20.64
2019-01-09T19:52:08.713Z,20.62
2019-01-09T19:54:36.265Z,20.63
2019-01-09T19:57:03.777Z,20.65
2019-01-09T19:59:31.297Z,20.65
2019-01-09T20:01:58.810Z,20.62
2019-01-09T20:04:26.314Z,20.64
2019-01-09T20:06:53.839Z,20.63
2019-01-09T20:09:21.364Z,20.64
2019-01-09T20:11:48.952Z,20.64
2019-01-09T20:14:16.514Z,20.65
2019-01-09T20:16:44.098Z,20.64
2019-01-09T20:19:11.719Z,20.65
2019-01-09T20:21:39.339Z,20.64
2019-01-09T20:24:07.129Z,20.65
2019-01-09T20:26:34.647Z,20.66
2019-01-09T20:29:02.167Z,20.65
2019-01-09T20:31:29.793Z,20.66
2019-01-09T20:33:57.446Z,20.66
2019-01-09T20:36:25.103Z,20.66
2019-01-09T20:38:52.702Z,20.67
2019-01-09T20:41:20.274Z,20.68
2019-01-09T20:43:47.911Z,20.67
2019-01-09T20:46:15.458Z,20.68
2019-01-09T20:48:43.000Z,20.68
2019-01-09T20:51:10.509Z,20.67
2019-01-09T20:53:38.044Z,20.65
2019-01-09T20:56:05.546Z,20.67
2019-01-09T20:58:33.116Z,20.69
2019-01-09T21:01:00.755Z,20.69
2019-01-09T21:03:28.300Z,20.69
2019-01-09T21:05:55.908Z,20.66
2019-01-09T21:08:23.470Z,20.66
2019-01-09T21:10:50.999Z,20.66
2019-01-09T21:13:18.531Z,20.67
2019-01-09T21:15:46.083Z,20.67
2019-01-09T21:18:13.665Z,20.68
2019-01-09T21:20:41.190Z,20.69
2019-01-09T21:23:08.732Z,20.70
2019-01-09T21:25:36.257Z,20.69
2019-01-09T21:28:05.518Z,20.67
2019-01-09T21:30:33.182Z,20.68
2019-01-09T21:33:00.689Z,20.67
2019-01-09T21:35:28.222Z,20.69
2019-01-09T21:37:55.736Z,20.68
2019-01-09T21:40:27.387Z,20.67
2019-01-09T21:42:54.908Z,20.67
2019-01-09T21:45:22.414Z,20.66
2019-01-09T21:47:49.923Z,20.67
2019-01-09T21:50:19.063Z,20.68
2019-01-09T21:52:46.647Z,20.65
2019-01-09T21:55:14.782Z,20.66
2019-01-09T21:57:42.322Z,20.66
2019-01-09T22:00:11.456Z,20.64
2019-01-09T22:02:38.994Z,20.67
2019-01-09T22:05:06.502Z,20.65
2019-01-09T22:07:34.030Z,20.66
2019-01-09T22:10:01.554Z,20.68
2019-01-09T22:12:29.075Z,20.67
2019-01-09T22:14:56.588Z,20.68
2019-01-09T22:17:24.078Z,20.68
2019-01-09T22:19:51.656Z,20.66
2019-01-09T22:22:19.148Z,20.69
2019-01-09T22:24:46.641Z,20.67
2019-01-09T22:27:14.184Z,20.66
2019-01-09T22:29:41.708Z,20.66
2019-01-09T22:32:09.194Z,20.64
2019-01-09T22:34:36.756Z,20.66
2019-01-09T22:37:04.247Z,20.66
2019-01-09T22:39:31.807Z,20.64
2019-01-09T22:41:59.367Z,20.64
2019-01-09T22:44:26.873Z,20.65
2019-01-09T22:46:54.366Z,20.65
2019-01-09T22:49:21.896Z,20.64
2019-01-09T22:51:49.417Z,20.64
2019-01-09T22:54:16.920Z,20.62
2019-01-09T22:56:44.449Z,20.63
2019-01-09T22:59:11.977Z,20.64
2019-01-09T23:01:39.524Z,20.65
2019-01-09T23:04:07.046Z,20.64
2019-01-09T23:06:34.625Z,20.63
2019-01-09T23:09:02.300Z,20.61
2019-01-09T23:11:29.837Z,20.62
2019-01-09T23:13:57.338Z,20.60
2019-01-09T23:16:24.828Z,20.59
2019-01-09T23:18:52.416Z,20.59
2019-01-09T23:21:19.914Z,20.61
2019-01-09T23:23:47.439Z,20.59
2019-01-09T23:26:14.953Z,20.57
2019-01-09T23:28:42.545Z,20.59
2019-01-09T23:31:10.098Z,20.60
2019-01-09T23:33:37.604Z,20.59
2019-01-09T23:36:05.145Z,20.56
2019-01-09T23:38:32.660Z,20.57
2019-01-09T23:41:00.167Z,20.57
2019-01-09T23:43:27.709Z,20.58
2019-01-09T23:45:55.214Z,20.58
2019-01-09T23:48:22.762Z,20.55
2019-01-09T23:50:50.275Z,20.58
2019-01-09T23:53:17.783Z,20.58
2019-01-09T23:55:45.287Z,20.56
2019-01-09T23:58:12.831Z,20.57
